createdAt,value
2019-05-28T00:00:23.711Z,10.67
2019-05-28T00:02:54.120Z,11.20
2019-05-28T00:05:24.314Z,10.90
2019-05-28T00:07:54.734Z,12.33
2019-05-28T00:10:25.187Z,11.97
2019-05-28T00:12:55.572Z,11.97
2019-05-28T00:15:25.971Z,12.50
2019-05-28T00:17:56.346Z,10.77
2019-05-28T00:20:26.796Z,13.37
2019-05-28T00:22:57.426Z,13.20
2019-05-28T00:25:29.376Z,12.67
2019-05-28T00:28:00.160Z,13.73
2019-05-28T00:30:32.040Z,10.87
2019-05-28T00:33:02.409Z,12.67
2019-05-28T00:35:33.274Z,12.70
2019-05-28T00:38:03.900Z,14.00
2019-05-28T00:40:34.761Z,13.10
2019-05-28T00:43:04.971Z,12.20
2019-05-28T00:45:35.226Z,12.70
2019-05-28T00:48:06.915Z,14.60
2019-05-28T00:50:37.306Z,14.13
2019-05-28T00:53:08.042Z,15.43
2019-05-28T00:55:38.933Z,14.03
2019-05-28T00:58:09.697Z,13.87
2019-05-28T01:00:47.988Z,14.37
2019-05-28T01:03:19.096Z,14.97
2019-05-28T01:05:49.501Z,12.83
2019-05-28T01:08:20.131Z,16.20
2019-05-28T01:10:50.284Z,11.90
2019-05-28T01:13:21.548Z,15.43
2019-05-28T01:15:51.679Z,14.07
2019-05-28T01:18:21.870Z,13.53
2019-05-28T01:20:52.553Z,14.23
2019-05-28T01:23:23.639Z,12.03
2019-05-28T01:25:55.305Z,12.73
2019-05-28T01:28:25.454Z,13.37
2019-05-28T01:31:00.427Z,16.13
2019-05-28T01:33:28.167Z,15.10
2019-05-28T01:35:59.214Z,13.47
2019-05-28T01:38:29.594Z,12.57
2019-05-28T01:41:00.211Z,14.27
2019-05-28T01:43:30.559Z,15.77
2019-05-28T01:46:00.750Z,15.17
2019-05-28T01:48:31.375Z,13.40
2019-05-28T01:51:01.740Z,16.23
2019-05-28T01:53:32.822Z,16.27
2019-05-28T01:56:03.516Z,13.93
2019-05-28T01:58:33.951Z,17.07
2019-05-28T02:01:12.666Z,14.77
2019-05-28T02:03:36.390Z,15.57
2019-05-28T02:06:06.607Z,15.33
2019-05-28T02:08:36.720Z,14.13
2019-05-28T02:11:07.335Z,12.93
2019-05-28T02:13:37.715Z,15.17
2019-05-28T02:16:08.360Z,14.27
2019-05-28T02:18:38.475Z,12.40
2019-05-28T02:21:08.933Z,13.03
2019-05-28T02:23:39.031Z,13.60
2019-05-28T02:26:09.834Z,13.80
2019-05-28T02:28:40.190Z,12.50
2019-05-28T02:31:10.314Z,13.80
2019-05-28T02:33:40.911Z,18.13
2019-05-28T02:36:11.790Z,15.30
2019-05-28T02:38:41.964Z,17.40
2019-05-28T02:41:12.062Z,13.20
2019-05-28T02:43:42.756Z,15.13
2019-05-28T02:46:12.933Z,14.87
2019-05-28T02:48:43.303Z,12.47
2019-05-28T02:51:14.084Z,12.83
2019-05-28T02:53:44.764Z,13.40
2019-05-28T02:56:16.946Z,17.13
2019-05-28T02:58:50.212Z,15.17
2019-05-28T03:01:22.456Z,18.53
2019-05-28T03:03:56.424Z,15.87
2019-05-28T03:06:28.090Z,15.30
2019-05-28T03:09:01.520Z,14.63
2019-05-28T03:11:32.515Z,14.67
2019-05-28T03:14:02.707Z,15.70
2019-05-28T03:16:36.167Z,16.20
2019-05-28T03:19:07.733Z,15.93
2019-05-28T03:21:39.578Z,15.77
2019-05-28T03:24:11.143Z,20.23
2019-05-28T03:26:42.404Z,14.83
2019-05-28T03:29:13.284Z,16.03
2019-05-28T03:32:02.868Z,18.80
2019-05-28T03:34:16.578Z,19.87
2019-05-28T03:36:48.694Z,14.70
2019-05-28T03:39:19.711Z,21.90
2019-05-28T03:41:50.076Z,16.93
2019-05-28T03:44:20.266Z,18.37
2019-05-28T03:46:50.860Z,17.97
2019-05-28T03:49:21.005Z,16.23
2019-05-28T03:51:51.829Z,21.50
2019-05-28T03:54:25.142Z,14.93
2019-05-28T03:56:55.334Z,15.07
2019-05-28T03:59:25.464Z,22.33
2019-05-28T04:01:55.601Z,15.47
2019-05-28T04:04:25.717Z,18.40
2019-05-28T04:06:55.927Z,17.13
2019-05-28T04:09:26.534Z,17.30
2019-05-28T04:11:56.977Z,17.23
2019-05-28T04:14:27.336Z,14.57
2019-05-28T04:16:57.487Z,16.40
2019-05-28T04:19:27.871Z,16.70
2019-05-28T04:21:58.547Z,21.33
2019-05-28T04:24:28.921Z,15.50
2019-05-28T04:27:00.115Z,16.87
2019-05-28T04:29:30.490Z,13.63
2019-05-28T04:32:01.344Z,17.60
2019-05-28T04:34:31.705Z,15.30
2019-05-28T04:37:02.736Z,14.03
2019-05-28T04:39:35.380Z,12.30
2019-05-28T04:42:04.971Z,16.83
2019-05-28T04:44:35.317Z,12.43
2019-05-28T04:47:08.507Z,12.53
2019-05-28T04:49:37.754Z,11.57
2019-05-28T04:52:07.938Z,13.00
2019-05-28T04:54:38.521Z,11.10
2019-05-28T04:57:08.657Z,11.10
2019-05-28T04:59:38.881Z,11.27
2019-05-28T05:02:08.993Z,11.50
2019-05-28T05:04:39.405Z,11.40
2019-05-28T05:07:09.575Z,10.00
2019-05-28T05:09:39.950Z,11.60
2019-05-28T05:12:10.410Z,10.27
2019-05-28T05:14:40.979Z,9.70
2019-05-28T05:17:11.338Z,8.13
2019-05-28T05:19:41.500Z,13.57
2019-05-28T05:22:11.587Z,7.70
2019-05-28T05:24:42.188Z,8.80
2019-05-28T05:27:12.957Z,11.10
2019-05-28T05:29:44.015Z,9.90
2019-05-28T05:32:14.124Z,12.80
2019-05-28T05:34:44.495Z,8.93
2019-05-28T05:37:15.214Z,10.70
2019-05-28T05:39:48.751Z,13.87
2019-05-28T05:42:17.623Z,10.57
2019-05-28T05:44:48.213Z,7.03
2019-05-28T05:47:18.388Z,12.00
2019-05-28T05:49:48.496Z,6.67
2019-05-28T05:52:18.596Z,9.27
2019-05-28T05:54:49.017Z,7.10
2019-05-28T05:57:31.082Z,8.90
2019-05-28T06:00:12.995Z,12.10
2019-05-28T06:02:55.838Z,6.87
2019-05-28T06:05:38.471Z,7.73
2019-05-28T06:08:20.696Z,6.60
2019-05-28T06:10:51.113Z,8.80
2019-05-28T06:13:22.431Z,6.13
2019-05-28T06:15:52.537Z,8.80
2019-05-28T06:18:22.889Z,7.87
2019-05-28T06:21:07.460Z,7.43
2019-05-28T06:23:25.593Z,6.50
2019-05-28T06:25:55.962Z,9.60
2019-05-28T06:28:27.077Z,5.70
2019-05-28T06:30:57.450Z,6.30
2019-05-28T06:33:27.888Z,6.50
2019-05-28T06:35:58.088Z,10.90
2019-05-28T06:38:28.345Z,5.10
2019-05-28T06:40:58.680Z,5.43
2019-05-28T06:43:29.511Z,8.03
2019-05-28T06:45:59.875Z,4.53
2019-05-28T06:48:30.976Z,7.17
2019-05-28T06:51:01.328Z,5.83
2019-05-28T06:53:32.155Z,5.17
2019-05-28T06:56:02.479Z,7.67
2019-05-28T06:58:39.173Z,4.40
2019-05-28T07:01:05.186Z,4.97
2019-05-28T07:03:36.214Z,4.03
2019-05-28T07:06:08.051Z,9.10
2019-05-28T07:08:38.605Z,3.30
2019-05-28T07:11:09.220Z,5.03
2019-05-28T07:13:39.582Z,7.57
2019-05-28T07:16:10.265Z,3.73
2019-05-28T07:18:40.358Z,7.37
2019-05-28T07:21:10.703Z,4.37
2019-05-28T07:23:40.807Z,5.37
2019-05-28T07:26:11.202Z,3.33
2019-05-28T07:28:42.917Z,5.30
2019-05-28T07:31:13.100Z,3.87
2019-05-28T07:33:43.207Z,4.53
2019-05-28T07:36:13.872Z,2.00
2019-05-28T07:38:44.384Z,6.63
2019-05-28T07:41:14.726Z,3.30
2019-05-28T07:43:46.043Z,6.93
2019-05-28T07:46:16.470Z,2.90
2019-05-28T07:48:47.090Z,4.80
2019-05-28T07:51:17.205Z,2.70
2019-05-28T07:53:47.379Z,5.80
2019-05-28T07:56:17.747Z,2.30
2019-05-28T07:58:48.097Z,2.93
2019-05-28T08:01:18.695Z,2.70
2019-05-28T08:03:49.075Z,3.13
2019-05-28T08:06:19.448Z,3.10
2019-05-28T08:08:50.567Z,5.90
2019-05-28T08:11:20.674Z,5.30
2019-05-28T08:13:52.574Z,3.00
2019-05-28T08:16:24.247Z,3.60
2019-05-28T08:18:55.984Z,2.17
2019-05-28T08:21:26.358Z,2.90
2019-05-28T08:23:56.457Z,5.97
2019-05-28T08:26:26.814Z,3.37
2019-05-28T08:28:59.665Z,2.80
2019-05-28T08:31:30.865Z,3.53
2019-05-28T08:34:01.046Z,3.13
2019-05-28T08:36:32.445Z,4.70
2019-05-28T08:39:03.428Z,2.07
2019-05-28T08:41:34.075Z,7.33
2019-05-28T08:44:04.494Z,3.67
2019-05-28T08:46:34.631Z,2.30
2019-05-28T08:49:05.457Z,10.20
2019-05-28T08:51:36.982Z,2.03
2019-05-28T08:54:07.738Z,12.13
2019-05-28T08:56:37.842Z,10.50
2019-05-28T08:59:09.350Z,5.83
2019-05-28T09:01:39.711Z,8.40
2019-05-28T09:04:10.135Z,2.63
2019-05-28T09:06:40.796Z,6.63
2019-05-28T09:09:10.894Z,5.47
2019-05-28T09:11:41.257Z,2.20
2019-05-28T09:14:11.598Z,4.20
2019-05-28T09:16:42.701Z,7.53
2019-05-28T09:19:12.858Z,4.67
2019-05-28T09:21:43.810Z,5.67
2019-05-28T09:24:14.266Z,2.90
2019-05-28T09:26:44.655Z,5.30
2019-05-28T09:29:16.038Z,1.97
2019-05-28T09:31:46.952Z,2.07
2019-05-28T09:34:17.313Z,2.33
2019-05-28T09:36:47.649Z,6.40
2019-05-28T09:39:18.355Z,4.57
2019-05-28T09:41:48.471Z,5.03
2019-05-28T09:44:18.916Z,3.03
2019-05-28T09:46:49.271Z,3.90
2019-05-28T09:49:19.728Z,2.87
2019-05-28T09:51:51.094Z,2.30
2019-05-28T09:54:21.199Z,2.80
2019-05-28T09:56:51.567Z,4.97
2019-05-28T09:59:21.812Z,2.20
2019-05-28T10:01:52.347Z,1.97
2019-05-28T10:04:38.210Z,2.80
2019-05-28T10:06:54.632Z,3.63
2019-05-28T10:09:24.875Z,1.23
2019-05-28T10:11:55.227Z,6.60
2019-05-28T10:14:25.582Z,3.50
2019-05-28T10:16:55.929Z,1.90
2019-05-28T10:19:26.504Z,3.37
2019-05-28T10:21:57.627Z,5.10
2019-05-28T10:24:27.996Z,2.30
2019-05-28T10:26:58.822Z,2.33
2019-05-28T10:29:30.169Z,2.20
2019-05-28T10:32:00.610Z,2.80
2019-05-28T10:34:30.730Z,1.93
2019-05-28T10:37:02.090Z,6.00
2019-05-28T10:39:33.503Z,3.53
2019-05-28T10:42:03.758Z,2.90
2019-05-28T10:44:33.955Z,4.13
2019-05-28T10:47:05.183Z,2.97
2019-05-28T10:49:35.718Z,3.77
2019-05-28T10:52:06.305Z,2.83
2019-05-28T10:54:36.409Z,4.97
2019-05-28T10:57:06.495Z,5.13
2019-05-28T10:59:36.590Z,3.30
2019-05-28T11:02:06.689Z,2.10
2019-05-28T11:04:37.084Z,2.60
2019-05-28T11:07:07.646Z,6.90
2019-05-28T11:09:37.743Z,9.03
2019-05-28T11:12:07.948Z,2.13
2019-05-28T11:14:38.439Z,5.90
2019-05-28T11:17:08.778Z,3.57
2019-05-28T11:19:38.893Z,1.97
2019-05-28T11:22:09.298Z,1.73
2019-05-28T11:24:39.501Z,4.70
2019-05-28T11:27:09.629Z,4.13
2019-05-28T11:29:40.173Z,2.67
2019-05-28T11:32:10.380Z,2.27
2019-05-28T11:34:40.727Z,1.67
2019-05-28T11:37:11.089Z,2.73
2019-05-28T11:39:41.576Z,2.53
2019-05-28T11:42:11.707Z,2.07
2019-05-28T11:44:42.076Z,4.23
2019-05-28T11:47:12.217Z,10.83
2019-05-28T11:49:42.875Z,1.10
2019-05-28T11:52:13.217Z,2.63
2019-05-28T11:54:43.329Z,0.97
2019-05-28T11:57:13.723Z,5.70
2019-05-28T11:59:44.855Z,3.87
2019-05-28T12:02:14.970Z,2.47
2019-05-28T12:04:45.112Z,2.30
2019-05-28T12:07:25.530Z,3.53
2019-05-28T12:09:47.623Z,2.43
2019-05-28T12:12:17.727Z,1.97
2019-05-28T12:14:48.093Z,4.10
2019-05-28T12:17:18.262Z,2.33
2019-05-28T12:19:48.722Z,1.30
2019-05-28T12:22:18.826Z,2.10
2019-05-28T12:24:48.943Z,1.60
2019-05-28T12:27:19.038Z,3.17
2019-05-28T12:29:52.255Z,1.77
2019-05-28T12:32:21.491Z,3.67
2019-05-28T12:34:51.855Z,3.40
2019-05-28T12:37:22.439Z,6.40
2019-05-28T12:39:53.999Z,4.30
2019-05-28T12:42:24.414Z,2.93
2019-05-28T12:45:08.777Z,2.13
2019-05-28T12:47:26.550Z,3.03
2019-05-28T12:50:14.500Z,4.53
2019-05-28T12:52:29.001Z,3.67
2019-05-28T12:54:59.487Z,2.70
2019-05-28T12:57:30.140Z,3.57
2019-05-28T13:00:00.541Z,5.20
2019-05-28T13:02:30.769Z,4.23
2019-05-28T13:05:00.960Z,2.20
2019-05-28T13:07:32.373Z,3.30
2019-05-28T13:10:03.015Z,5.30
2019-05-28T13:12:34.546Z,4.47
2019-05-28T13:15:05.437Z,5.37
2019-05-28T13:17:36.043Z,1.77
2019-05-28T13:20:07.396Z,4.33
2019-05-28T13:22:37.555Z,1.77
2019-05-28T13:25:10.853Z,2.20
2019-05-28T13:27:41.546Z,2.77
2019-05-28T13:30:14.020Z,1.83
2019-05-28T13:32:44.924Z,4.50
2019-05-28T13:35:16.128Z,1.47
2019-05-28T13:37:47.030Z,3.20
2019-05-28T13:40:18.194Z,3.77
2019-05-28T13:42:49.095Z,4.63
2019-05-28T13:45:20.146Z,5.87
2019-05-28T13:47:50.867Z,2.50
2019-05-28T13:50:23.131Z,1.23
2019-05-28T13:52:53.219Z,2.20
2019-05-28T13:55:23.863Z,2.50
2019-05-28T13:57:54.682Z,1.70
2019-05-28T14:00:26.863Z,1.70
2019-05-28T14:03:10.624Z,6.20
2019-05-28T14:05:53.765Z,2.93
2019-05-28T14:08:46.600Z,4.67
2019-05-28T14:11:19.889Z,6.10
2019-05-28T14:14:01.566Z,4.47
2019-05-28T14:16:44.162Z,7.43
2019-05-28T14:19:26.818Z,7.03
2019-05-28T14:22:09.482Z,3.47
2019-05-28T14:24:51.998Z,3.00
2019-05-28T14:27:34.287Z,5.80
2019-05-28T14:30:17.544Z,2.33
2019-05-28T14:32:59.484Z,2.80
2019-05-28T14:35:42.082Z,2.30
2019-05-28T14:38:24.157Z,4.53
2019-05-28T14:41:06.705Z,4.60
2019-05-28T14:43:49.202Z,3.97
2019-05-28T14:46:32.302Z,1.57
2019-05-28T14:49:14.422Z,2.90
2019-05-28T14:51:56.805Z,4.70
2019-05-28T14:54:39.432Z,2.43
2019-05-28T14:57:21.345Z,5.63
2019-05-28T15:00:04.351Z,4.20
2019-05-28T15:02:47.478Z,5.70
2019-05-28T15:05:30.200Z,4.80
2019-05-28T15:08:13.062Z,3.63
2019-05-28T15:10:55.150Z,3.73
2019-05-28T15:13:37.299Z,3.47
2019-05-28T15:16:19.609Z,4.80
2019-05-28T15:19:02.566Z,5.03
2019-05-28T15:21:44.474Z,4.53
2019-05-28T15:24:26.610Z,5.60
2019-05-28T15:27:08.916Z,2.10
2019-05-28T15:29:51.558Z,4.03
2019-05-28T15:32:34.649Z,2.50
2019-05-28T15:35:17.460Z,4.13
2019-05-28T15:37:59.910Z,2.10
2019-05-28T15:40:41.774Z,3.20
2019-05-28T15:43:25.154Z,6.27
2019-05-28T15:46:06.911Z,3.63
2019-05-28T15:48:49.759Z,4.23
2019-05-28T15:51:32.723Z,3.50
2019-05-28T15:54:15.370Z,6.40
2019-05-28T15:56:57.745Z,1.83
2019-05-28T15:59:39.820Z,5.33
2019-05-28T16:02:22.674Z,2.00
2019-05-28T16:05:04.497Z,4.87
2019-05-28T16:07:46.807Z,2.20
2019-05-28T16:10:29.531Z,2.80
2019-05-28T16:13:12.145Z,4.07
2019-05-28T16:15:54.154Z,3.53
2019-05-28T16:18:36.787Z,9.30
2019-05-28T16:21:18.617Z,28.93
2019-05-28T16:24:01.189Z,20.63
2019-05-28T16:26:43.359Z,4.87
2019-05-28T16:29:29.856Z,3.03
2019-05-28T16:32:17.259Z,2.23
2019-05-28T16:35:07.727Z,5.03
2019-05-28T16:37:50.517Z,2.77
2019-05-28T16:40:33.216Z,4.37
2019-05-28T16:43:43.794Z,5.27
2019-05-28T16:46:32.181Z,4.73
2019-05-28T16:49:14.006Z,4.53
2019-05-28T16:51:56.012Z,4.90
2019-05-28T16:54:38.763Z,6.47
2019-05-28T16:57:21.129Z,2.83
2019-05-28T17:00:02.832Z,2.80
2019-05-28T17:02:45.473Z,2.67
2019-05-28T17:05:27.727Z,2.80
2019-05-28T17:08:09.754Z,2.60
2019-05-28T17:10:52.652Z,2.00
2019-05-28T17:13:35.986Z,5.25
2019-05-28T17:16:18.728Z,6.10
2019-05-28T17:19:01.100Z,3.80
2019-05-28T17:21:43.457Z,7.03
2019-05-28T17:24:26.164Z,2.50
2019-05-28T17:27:08.621Z,2.73
2019-05-28T17:29:50.837Z,3.97
2019-05-28T17:32:21.097Z,2.30
2019-05-28T17:35:03.738Z,3.70
2019-05-28T17:41:30.409Z,2.80
2019-05-28T17:44:13.466Z,2.47
2019-05-28T17:46:56.161Z,4.27
2019-05-28T17:49:39.271Z,4.63
2019-05-28T17:52:21.722Z,5.03
2019-05-28T17:55:04.655Z,4.70
2019-05-28T17:57:46.601Z,5.50
2019-05-28T18:00:28.780Z,3.90
2019-05-28T18:03:12.057Z,3.20
2019-05-28T18:05:54.562Z,7.33
2019-05-28T18:08:36.877Z,3.20
2019-05-28T18:11:20.107Z,4.50
2019-05-28T18:14:02.853Z,4.63
2019-05-28T18:16:45.482Z,2.93
2019-05-28T18:19:28.289Z,4.77
2019-05-28T18:22:11.095Z,5.37
2019-05-28T18:24:53.822Z,2.80
2019-05-28T18:27:36.269Z,4.00
2019-05-28T18:30:18.727Z,2.17
2019-05-28T18:33:01.714Z,12.30
2019-05-28T18:35:43.878Z,1.60
2019-05-28T18:38:27.478Z,1.77
2019-05-28T18:41:21.044Z,2.10
2019-05-28T18:43:54.066Z,6.23
2019-05-28T18:46:38.090Z,2.40
2019-05-28T18:49:20.488Z,3.43
2019-05-28T18:52:03.094Z,2.40
2019-05-28T18:54:46.294Z,3.73
2019-05-28T18:57:28.105Z,3.50
2019-05-28T19:00:10.717Z,3.97
2019-05-28T19:02:54.850Z,1.92
2019-05-28T19:05:37.777Z,4.10
2019-05-28T19:08:19.546Z,4.23
2019-05-28T19:11:01.613Z,2.30
2019-05-28T19:13:44.076Z,4.60
2019-05-28T19:16:26.459Z,9.03
2019-05-28T19:19:09.293Z,1.57
2019-05-28T19:21:51.557Z,1.30
2019-05-28T19:24:34.225Z,3.60
2019-05-28T19:27:16.341Z,3.70
2019-05-28T19:29:59.109Z,3.30
2019-05-28T19:32:41.290Z,7.70
2019-05-28T19:35:23.809Z,3.10
2019-05-28T19:38:06.813Z,3.53
2019-05-28T19:40:49.388Z,4.00
2019-05-28T19:43:32.107Z,2.50
2019-05-28T19:46:14.938Z,4.57
2019-05-28T19:48:57.502Z,3.37
2019-05-28T19:51:40.168Z,1.80
2019-05-28T19:54:23.064Z,2.50
2019-05-28T19:57:05.736Z,3.13
2019-05-28T19:59:48.155Z,4.57
2019-05-28T20:02:30.467Z,4.77
2019-05-28T20:05:15.092Z,4.60
2019-05-28T20:07:56.654Z,4.53
2019-05-28T20:10:39.524Z,2.50
2019-05-28T20:13:22.211Z,3.80
2019-05-28T20:16:04.518Z,6.30
2019-05-28T20:18:47.259Z,3.67
2019-05-28T20:21:29.935Z,2.80
2019-05-28T20:24:11.745Z,3.53
2019-05-28T20:26:53.958Z,2.50
2019-05-28T20:29:36.740Z,2.57
2019-05-28T20:32:19.338Z,3.17
2019-05-28T20:35:03.395Z,2.33
2019-05-28T20:37:47.223Z,1.73
2019-05-28T20:40:29.690Z,1.30
2019-05-28T20:43:12.244Z,2.60
2019-05-28T20:45:55.252Z,2.53
2019-05-28T20:48:37.625Z,2.30
2019-05-28T20:51:22.120Z,1.80
2019-05-28T20:54:04.933Z,4.90
2019-05-28T20:56:49.817Z,1.97
2019-05-28T20:59:30.958Z,3.43
2019-05-28T21:02:13.129Z,5.87
2019-05-28T21:04:54.869Z,1.87
2019-05-28T21:07:36.866Z,2.53
2019-05-28T21:10:19.279Z,3.50
2019-05-28T21:13:01.769Z,5.43
2019-05-28T21:15:44.537Z,1.77
2019-05-28T21:18:26.264Z,2.33
2019-05-28T21:21:08.473Z,2.10
2019-05-28T21:23:51.651Z,6.13
2019-05-28T21:26:33.859Z,1.30
2019-05-28T21:29:16.285Z,2.63
2019-05-28T21:31:58.807Z,1.93
2019-05-28T21:34:41.418Z,4.97
2019-05-28T21:37:23.146Z,1.97
2019-05-28T21:40:05.506Z,2.30
2019-05-28T21:42:59.287Z,4.70
2019-05-28T21:45:32.258Z,2.20
2019-05-28T21:48:14.630Z,3.03
2019-05-28T21:50:58.560Z,3.47
2019-05-28T21:53:42.000Z,3.07
2019-05-28T21:56:24.530Z,3.90
2019-05-28T21:59:06.877Z,2.70
2019-05-28T22:01:50.470Z,1.80
2019-05-28T22:04:32.640Z,1.40
2019-05-28T22:07:14.502Z,1.40
2019-05-28T22:09:57.658Z,2.93
2019-05-28T22:12:39.827Z,3.37
2019-05-28T22:15:22.477Z,3.00
2019-05-28T22:18:04.990Z,3.00
2019-05-28T22:20:47.573Z,2.67
2019-05-28T22:23:30.455Z,5.60
2019-05-28T22:26:13.382Z,3.40
2019-05-28T22:28:56.040Z,1.90
2019-05-28T22:31:38.226Z,3.50
2019-05-28T22:34:20.763Z,1.87
2019-05-28T22:37:04.397Z,1.73
2019-05-28T22:39:46.943Z,1.57
2019-05-28T22:42:28.638Z,3.63
2019-05-28T22:45:11.216Z,4.30
2019-05-28T22:47:53.762Z,1.67
2019-05-28T22:50:36.059Z,2.40
2019-05-28T22:53:18.646Z,9.17
2019-05-28T22:56:04.070Z,1.57
2019-05-28T22:58:46.075Z,2.13
2019-05-28T23:01:28.593Z,1.50
2019-05-28T23:04:10.477Z,1.50
2019-05-28T23:06:53.272Z,1.83
2019-05-28T23:09:36.052Z,2.63
2019-05-28T23:12:18.834Z,2.20
2019-05-28T23:15:01.973Z,2.65
2019-05-28T23:17:44.080Z,2.83
2019-05-28T23:20:26.506Z,2.13
2019-05-28T23:23:09.526Z,5.73
2019-05-28T23:25:51.778Z,1.73
2019-05-28T23:28:34.197Z,2.40
2019-05-28T23:31:16.149Z,5.20
2019-05-28T23:33:58.801Z,3.47
2019-05-28T23:36:41.527Z,4.37
2019-05-28T23:39:24.372Z,4.87
2019-05-28T23:42:07.289Z,4.87
2019-05-28T23:44:49.497Z,2.83
2019-05-28T23:47:31.961Z,3.00
2019-05-28T23:50:17.918Z,2.20
2019-05-28T23:52:58.534Z,1.47
2019-05-28T23:55:40.585Z,2.20
2019-05-28T23:58:23.879Z,3.63
